首页
METAR-TAF:

METAR-TAF

机场 :

山胡桃, 北卡罗来纳州, 美国

纬度: 35-44-32N, 经度: 081-22-56W, 海拔: 362米

当前天气观测

该预报发布于1小时和4分钟前的09:53 UTC
风速4节,风向东北
温度 19°C
湿度 88%
气压 1020 hPa
能見度: 16.1公里
阴天层高于1200英尺

METAR: KHKY 260953Z AUTO 04004KT 10SM OVC012 19/17 A3013 RMK AO2 SLP185 T01890172

时间: 06:57 (10:57 UTC)

预报

该预报发布于52分钟前的10:05 UTC
预报有效从26日的 10点(UTC)到 27日的 06点(UTC)
风速4节,风向东北
能見度: 10公里
散云层高于900英尺
阴天层高于1200英尺
从 26日的 1700点(UTC)
风速4节,风向
能見度: 10公里
阴天层高于1500英尺
从 26日的 2100点(UTC)
风速7节,风向
能見度: 10公里
阴天层高于3500英尺
附近有阵雨
从 27日的 0500点(UTC)
风速4节,风向东转东北
能見度: 10公里
多云层高于1300英尺

TAF: KHKY 261005Z 2610/2706 04004KT P6SM SCT009 OVC012 FM261700 08004KT P6SM OVC015 FM262100 09007KT P6SM VCSH OVC035 FM270500 07004KT P6SM BKN013

超过4000个机场的气象观测和天气预报(METAR&TAF报告)。

可查询的气象台以黄色和红色小点在地图上表示。

将鼠标移到小点上方,可查看气象台名称。

然后点击查看天气观测和预报。

如需切换地图:点击带黑十字的绿色按钮放大地图;点击带横线的绿色按钮缩小地图;或者点击绿色箭头查看邻近地区的地图。


METAR-TAF: